Risingsun, Ohio
Current Conditions -  °F | °C
As of 9:53 PM on Friday 19 Dec 2014 (Local Time) from KTDZ Reporting Station
Overcast Overcast  
Wind Chill: -1°   Ceiling: 2500
Heat Index: -1°   Visibility: 10mi
Dew Point: -4°   Wind: 3mph
Humidity: 79%   Direction: 120°ESE
Pressure: 30.3"   Gusts: NA
Location:  41.27°N, 83.42°W
Report Text: KTDZ 200253Z AUTO 12003KT 10SM OVC025 M01/M04 A3030 RMK AO2 SLP267 T10111044 55012 TSNO
Loading
Personal Weather Stations






























Interactive Weather Map New forecast layout! Learn more

10-Day Weather Forecast

Advertisements
Track Severe Weather on mobile